sensor_id;sensor_type;location;lat;lon;timestamp;temperature;humidity
3548;DHT22;1788;49.400;11.092;2022-10-22T00:00:57;16.30;76.00
3548;DHT22;1788;49.400;11.092;2022-10-22T00:03:24;16.30;76.10
3548;DHT22;1788;49.400;11.092;2022-10-22T00:05:50;16.30;76.10
3548;DHT22;1788;49.400;11.092;2022-10-22T00:08:17;16.30;76.20
3548;DHT22;1788;49.400;11.092;2022-10-22T00:10:44;16.30;76.20
3548;DHT22;1788;49.400;11.092;2022-10-22T00:13:10;16.30;76.20
3548;DHT22;1788;49.400;11.092;2022-10-22T00:15:37;16.40;76.40
3548;DHT22;1788;49.400;11.092;2022-10-22T00:18:04;16.30;76.20
3548;DHT22;1788;49.400;11.092;2022-10-22T00:20:30;16.30;76.20
3548;DHT22;1788;49.400;11.092;2022-10-22T00:22:58;16.30;76.50
3548;DHT22;1788;49.400;11.092;2022-10-22T00:25:24;16.30;76.50
3548;DHT22;1788;49.400;11.092;2022-10-22T00:27:51;16.40;76.70
3548;DHT22;1788;49.400;11.092;2022-10-22T00:30:18;16.30;76.50
3548;DHT22;1788;49.400;11.092;2022-10-22T00:32:45;16.40;76.70
3548;DHT22;1788;49.400;11.092;2022-10-22T00:35:11;16.40;76.70
3548;DHT22;1788;49.400;11.092;2022-10-22T00:37:38;16.40;76.60
3548;DHT22;1788;49.400;11.092;2022-10-22T00:40:05;16.40;76.70
3548;DHT22;1788;49.400;11.092;2022-10-22T00:42:32;16.40;76.70
3548;DHT22;1788;49.400;11.092;2022-10-22T00:45:03;16.40;77.50
3548;DHT22;1788;49.400;11.092;2022-10-22T00:47:27;16.40;76.70
3548;DHT22;1788;49.400;11.092;2022-10-22T00:49:53;16.40;76.70
3548;DHT22;1788;49.400;11.092;2022-10-22T00:52:20;16.40;76.90
3548;DHT22;1788;49.400;11.092;2022-10-22T00:54:47;16.30;76.80
3548;DHT22;1788;49.400;11.092;2022-10-22T00:57:14;16.40;77.00
3548;DHT22;1788;49.400;11.092;2022-10-22T00:59:40;16.30;77.00
3548;DHT22;1788;49.400;11.092;2022-10-22T01:02:06;16.30;77.10
3548;DHT22;1788;49.400;11.092;2022-10-22T01:04:34;16.30;78.10
3548;DHT22;1788;49.400;11.092;2022-10-22T01:07:00;16.30;77.40
3548;DHT22;1788;49.400;11.092;2022-10-22T01:21:42;16.30;77.30
3548;DHT22;1788;49.400;11.092;2022-10-22T01:29:02;16.20;77.50
3548;DHT22;1788;49.400;11.092;2022-10-22T01:31:28;16.20;77.70
3548;DHT22;1788;49.400;11.092;2022-10-22T01:33:54;16.20;77.80
3548;DHT22;1788;49.400;11.092;2022-10-22T01:36:21;16.20;77.90
3548;DHT22;1788;49.400;11.092;2022-10-22T01:38:48;16.20;78.10
3548;DHT22;1788;49.400;11.092;2022-10-22T01:41:15;16.20;78.10
3548;DHT22;1788;49.400;11.092;2022-10-22T01:43:41;16.20;78.10
3548;DHT22;1788;49.400;11.092;2022-10-22T01:46:08;16.20;78.10
3548;DHT22;1788;49.400;11.092;2022-10-22T01:55:55;16.10;78.10
3548;DHT22;1788;49.400;11.092;2022-10-22T02:00:49;16.10;78.20
3548;DHT22;1788;49.400;11.092;2022-10-22T02:03:18;16.10;78.20
3548;DHT22;1788;49.400;11.092;2022-10-22T02:05:44;16.10;78.10
3548;DHT22;1788;49.400;11.092;2022-10-22T02:08:10;16.10;78.10
3548;DHT22;1788;49.400;11.092;2022-10-22T02:10:37;16.20;78.90
3548;DHT22;1788;49.400;11.092;2022-10-22T02:13:03;16.10;78.00
3548;DHT22;1788;49.400;11.092;2022-10-22T02:15:29;16.10;77.90
3548;DHT22;1788;49.400;11.092;2022-10-22T02:17:57;16.20;78.00
3548;DHT22;1788;49.400;11.092;2022-10-22T02:20:25;16.10;77.80
3548;DHT22;1788;49.400;11.092;2022-10-22T02:22:50;16.20;77.80
3548;DHT22;1788;49.400;11.092;2022-10-22T02:25:17;16.20;77.70
3548;DHT22;1788;49.400;11.092;2022-10-22T02:27:44;16.20;77.70
3548;DHT22;1788;49.400;11.092;2022-10-22T02:30:10;16.20;77.70
3548;DHT22;1788;49.400;11.092;2022-10-22T02:35:03;16.20;77.60
3548;DHT22;1788;49.400;11.092;2022-10-22T02:37:30;16.20;76.80
3548;DHT22;1788;49.400;11.092;2022-10-22T02:39:57;16.20;77.50
3548;DHT22;1788;49.400;11.092;2022-10-22T02:42:24;16.20;77.40
3548;DHT22;1788;49.400;11.092;2022-10-22T02:44:51;16.20;77.40
3548;DHT22;1788;49.400;11.092;2022-10-22T02:47:17;16.20;77.50
3548;DHT22;1788;49.400;11.092;2022-10-22T02:49:44;16.20;77.70
3548;DHT22;1788;49.400;11.092;2022-10-22T02:52:11;16.10;77.50
3548;DHT22;1788;49.400;11.092;2022-10-22T02:54:38;16.10;77.60
3548;DHT22;1788;49.400;11.092;2022-10-22T02:57:05;16.10;77.60
3548;DHT22;1788;49.400;11.092;2022-10-22T02:59:31;16.10;77.70
3548;DHT22;1788;49.400;11.092;2022-10-22T03:01:58;16.10;77.70
3548;DHT22;1788;49.400;11.092;2022-10-22T03:04:25;16.10;77.60
3548;DHT22;1788;49.400;11.092;2022-10-22T03:06:52;16.10;77.70
3548;DHT22;1788;49.400;11.092;2022-10-22T03:09:19;16.10;77.70
3548;DHT22;1788;49.400;11.092;2022-10-22T03:11:46;16.10;77.70
3548;DHT22;1788;49.400;11.092;2022-10-22T03:14:13;16.10;77.70
3548;DHT22;1788;49.400;11.092;2022-10-22T03:16:39;16.20;77.80
3548;DHT22;1788;49.400;11.092;2022-10-22T03:19:06;16.20;77.70
3548;DHT22;1788;49.400;11.092;2022-10-22T03:24:00;16.10;77.70
3548;DHT22;1788;49.400;11.092;2022-10-22T03:26:26;16.00;77.70
3548;DHT22;1788;49.400;11.092;2022-10-22T03:28:52;16.00;77.90
3548;DHT22;1788;49.400;11.092;2022-10-22T03:31:19;16.00;78.00
3548;DHT22;1788;49.400;11.092;2022-10-22T03:33:46;16.00;78.10
3548;DHT22;1788;49.400;11.092;2022-10-22T03:36:13;16.00;78.00
3548;DHT22;1788;49.400;11.092;2022-10-22T03:38:40;16.00;78.00
3548;DHT22;1788;49.400;11.092;2022-10-22T03:41:06;16.00;78.00
3548;DHT22;1788;49.400;11.092;2022-10-22T03:43:33;16.00;78.00
3548;DHT22;1788;49.400;11.092;2022-10-22T03:45:59;16.00;78.00
3548;DHT22;1788;49.400;11.092;2022-10-22T03:48:26;15.90;78.00
3548;DHT22;1788;49.400;11.092;2022-10-22T03:50:54;15.90;78.10
3548;DHT22;1788;49.400;11.092;2022-10-22T03:53:21;15.90;78.00
3548;DHT22;1788;49.400;11.092;2022-10-22T03:55:47;15.90;78.00
3548;DHT22;1788;49.400;11.092;2022-10-22T03:58:14;15.90;78.00
3548;DHT22;1788;49.400;11.092;2022-10-22T04:00:41;15.90;78.00
3548;DHT22;1788;49.400;11.092;2022-10-22T04:03:08;15.90;78.10
3548;DHT22;1788;49.400;11.092;2022-10-22T04:05:35;15.90;78.10
3548;DHT22;1788;49.400;11.092;2022-10-22T04:08:02;15.90;78.00
3548;DHT22;1788;49.400;11.092;2022-10-22T04:10:29;15.90;78.00
3548;DHT22;1788;49.400;11.092;2022-10-22T04:12:55;15.90;78.00
3548;DHT22;1788;49.400;11.092;2022-10-22T04:15:22;15.90;78.00
3548;DHT22;1788;49.400;11.092;2022-10-22T04:17:48;15.90;78.00
3548;DHT22;1788;49.400;11.092;2022-10-22T04:20:16;15.90;78.20
3548;DHT22;1788;49.400;11.092;2022-10-22T04:22:42;15.80;78.10
3548;DHT22;1788;49.400;11.092;2022-10-22T04:25:10;15.90;78.20
3548;DHT22;1788;49.400;11.092;2022-10-22T04:27:36;15.80;77.90
3548;DHT22;1788;49.400;11.092;2022-10-22T04:30:03;15.90;78.00
3548;DHT22;1788;49.400;11.092;2022-10-22T04:32:30;15.90;78.00
3548;DHT22;1788;49.400;11.092;2022-10-22T04:34:56;15.90;77.90
3548;DHT22;1788;49.400;11.092;2022-10-22T04:37:24;16.00;77.80
3548;DHT22;1788;49.400;11.092;2022-10-22T04:39:51;16.00;77.80
3548;DHT22;1788;49.400;11.092;2022-10-22T04:42:18;16.00;77.70
3548;DHT22;1788;49.400;11.092;2022-10-22T04:44:45;16.00;77.60
3548;DHT22;1788;49.400;11.092;2022-10-22T04:47:11;16.00;77.50
3548;DHT22;1788;49.400;11.092;2022-10-22T04:49:37;16.00;77.50
3548;DHT22;1788;49.400;11.092;2022-10-22T04:52:04;16.00;77.40
3548;DHT22;1788;49.400;11.092;2022-10-22T04:54:31;16.00;77.40
3548;DHT22;1788;49.400;11.092;2022-10-22T04:56:58;16.00;77.40
3548;DHT22;1788;49.400;11.092;2022-10-22T04:59:25;16.00;77.40
3548;DHT22;1788;49.400;11.092;2022-10-22T05:01:51;16.00;77.40
3548;DHT22;1788;49.400;11.092;2022-10-22T05:04:18;16.00;77.40
3548;DHT22;1788;49.400;11.092;2022-10-22T05:06:45;16.00;77.40
3548;DHT22;1788;49.400;11.092;2022-10-22T05:09:13;16.00;77.30
3548;DHT22;1788;49.400;11.092;2022-10-22T05:11:39;16.00;77.30
3548;DHT22;1788;49.400;11.092;2022-10-22T05:14:05;16.00;77.40
3548;DHT22;1788;49.400;11.092;2022-10-22T05:16:33;15.90;77.40
3548;DHT22;1788;49.400;11.092;2022-10-22T05:18:59;16.00;77.50
3548;DHT22;1788;49.400;11.092;2022-10-22T05:21:26;16.00;77.50
3548;DHT22;1788;49.400;11.092;2022-10-22T05:23:53;16.00;77.40
3548;DHT22;1788;49.400;11.092;2022-10-22T05:26:19;15.90;77.30
3548;DHT22;1788;49.400;11.092;2022-10-22T05:28:47;15.90;77.30
3548;DHT22;1788;49.400;11.092;2022-10-22T05:31:13;15.90;77.30
3548;DHT22;1788;49.400;11.092;2022-10-22T05:33:41;15.80;77.20
3548;DHT22;1788;49.400;11.092;2022-10-22T05:36:08;15.80;77.20
3548;DHT22;1788;49.400;11.092;2022-10-22T05:38:34;15.90;77.30
3548;DHT22;1788;49.400;11.092;2022-10-22T05:41:02;15.80;77.20
3548;DHT22;1788;49.400;11.092;2022-10-22T05:43:28;15.70;77.30
3548;DHT22;1788;49.400;11.092;2022-10-22T05:45:55;15.70;77.30
3548;DHT22;1788;49.400;11.092;2022-10-22T05:48:21;15.70;77.30
3548;DHT22;1788;49.400;11.092;2022-10-22T05:50:48;15.70;77.40
3548;DHT22;1788;49.400;11.092;2022-10-22T05:53:15;15.70;77.50
3548;DHT22;1788;49.400;11.092;2022-10-22T05:55:41;15.70;77.50
3548;DHT22;1788;49.400;11.092;2022-10-22T05:58:08;15.70;77.40
3548;DHT22;1788;49.400;11.092;2022-10-22T06:00:35;15.70;77.30
3548;DHT22;1788;49.400;11.092;2022-10-22T06:03:01;15.70;77.30
3548;DHT22;1788;49.400;11.092;2022-10-22T06:05:28;15.70;77.10
3548;DHT22;1788;49.400;11.092;2022-10-22T06:07:55;15.70;77.00
3548;DHT22;1788;49.400;11.092;2022-10-22T06:10:21;15.70;77.20
3548;DHT22;1788;49.400;11.092;2022-10-22T06:12:48;15.70;76.90
3548;DHT22;1788;49.400;11.092;2022-10-22T06:15:15;15.70;76.80
3548;DHT22;1788;49.400;11.092;2022-10-22T06:17:42;15.70;76.80
3548;DHT22;1788;49.400;11.092;2022-10-22T06:20:08;15.70;76.70
3548;DHT22;1788;49.400;11.092;2022-10-22T06:22:35;15.70;76.70
3548;DHT22;1788;49.400;11.092;2022-10-22T06:25:01;15.70;76.70
3548;DHT22;1788;49.400;11.092;2022-10-22T06:27:28;15.70;76.60
3548;DHT22;1788;49.400;11.092;2022-10-22T06:29:55;15.70;76.40
3548;DHT22;1788;49.400;11.092;2022-10-22T06:32:22;15.70;76.40
3548;DHT22;1788;49.400;11.092;2022-10-22T06:34:49;15.70;76.40
3548;DHT22;1788;49.400;11.092;2022-10-22T06:37:16;15.70;77.30
3548;DHT22;1788;49.400;11.092;2022-10-22T06:39:42;15.60;76.30
3548;DHT22;1788;49.400;11.092;2022-10-22T06:42:10;15.70;77.30
3548;DHT22;1788;49.400;11.092;2022-10-22T06:44:36;15.60;76.50
3548;DHT22;1788;49.400;11.092;2022-10-22T06:47:03;15.70;76.60
3548;DHT22;1788;49.400;11.092;2022-10-22T06:49:30;15.70;76.70
3548;DHT22;1788;49.400;11.092;2022-10-22T06:51:56;15.60;76.60
3548;DHT22;1788;49.400;11.092;2022-10-22T06:54:24;15.70;76.80
3548;DHT22;1788;49.400;11.092;2022-10-22T06:56:50;15.70;76.80
3548;DHT22;1788;49.400;11.092;2022-10-22T06:59:18;15.70;76.80
3548;DHT22;1788;49.400;11.092;2022-10-22T07:01:44;15.70;76.80
3548;DHT22;1788;49.400;11.092;2022-10-22T07:04:11;15.70;76.90
3548;DHT22;1788;49.400;11.092;2022-10-22T07:06:38;15.70;76.90
3548;DHT22;1788;49.400;11.092;2022-10-22T07:09:04;15.70;76.90
3548;DHT22;1788;49.400;11.092;2022-10-22T07:13:59;15.80;77.00
3548;DHT22;1788;49.400;11.092;2022-10-22T07:16:25;15.80;77.00
3548;DHT22;1788;49.400;11.092;2022-10-22T07:18:52;15.80;76.90
3548;DHT22;1788;49.400;11.092;2022-10-22T07:21:19;15.90;77.10
3548;DHT22;1788;49.400;11.092;2022-10-22T07:23:45;15.90;77.90
3548;DHT22;1788;49.400;11.092;2022-10-22T07:26:13;15.90;77.10
3548;DHT22;1788;49.400;11.092;2022-10-22T07:28:39;16.00;77.20
3548;DHT22;1788;49.400;11.092;2022-10-22T07:31:06;15.90;77.00
3548;DHT22;1788;49.400;11.092;2022-10-22T07:33:33;16.00;77.90
3548;DHT22;1788;49.400;11.092;2022-10-22T07:36:02;16.00;77.10
3548;DHT22;1788;49.400;11.092;2022-10-22T07:38:27;16.20;78.20
3548;DHT22;1788;49.400;11.092;2022-10-22T07:40:54;16.10;77.20
3548;DHT22;1788;49.400;11.092;2022-10-22T07:43:21;16.20;77.30
3548;DHT22;1788;49.400;11.092;2022-10-22T07:45:47;16.30;77.40
3548;DHT22;1788;49.400;11.092;2022-10-22T07:48:14;16.30;77.40
3548;DHT22;1788;49.400;11.092;2022-10-22T07:50:41;16.40;77.50
3548;DHT22;1788;49.400;11.092;2022-10-22T07:53:08;16.40;77.50
3548;DHT22;1788;49.400;11.092;2022-10-22T07:55:35;16.60;77.90
3548;DHT22;1788;49.400;11.092;2022-10-22T07:58:02;16.60;77.90
3548;DHT22;1788;49.400;11.092;2022-10-22T08:00:29;16.70;77.90
3548;DHT22;1788;49.400;11.092;2022-10-22T08:02:56;16.80;77.90
3548;DHT22;1788;49.400;11.092;2022-10-22T08:05:22;16.90;77.70
3548;DHT22;1788;49.400;11.092;2022-10-22T08:07:49;16.90;77.50
3548;DHT22;1788;49.400;11.092;2022-10-22T08:10:15;17.00;77.40
3548;DHT22;1788;49.400;11.092;2022-10-22T08:12:42;17.10;77.30
3548;DHT22;1788;49.400;11.092;2022-10-22T08:15:09;17.10;76.80
3548;DHT22;1788;49.400;11.092;2022-10-22T08:17:36;17.10;76.80
3548;DHT22;1788;49.400;11.092;2022-10-22T08:20:03;17.00;77.40
3548;DHT22;1788;49.400;11.092;2022-10-22T08:22:30;17.00;76.40
3548;DHT22;1788;49.400;11.092;2022-10-22T08:24:57;17.00;76.50
3548;DHT22;1788;49.400;11.092;2022-10-22T08:27:23;17.00;76.50
3548;DHT22;1788;49.400;11.092;2022-10-22T08:29:50;16.90;76.40
3548;DHT22;1788;49.400;11.092;2022-10-22T08:32:17;17.00;76.50
3548;DHT22;1788;49.400;11.092;2022-10-22T08:34:44;16.90;76.40
3548;DHT22;1788;49.400;11.092;2022-10-22T08:37:11;17.00;76.50
3548;DHT22;1788;49.400;11.092;2022-10-22T08:39:37;17.00;76.50
3548;DHT22;1788;49.400;11.092;2022-10-22T08:51:53;17.10;76.20
3548;DHT22;1788;49.400;11.092;2022-10-22T08:59:16;17.20;76.20
3548;DHT22;1788;49.400;11.092;2022-10-22T09:01:42;17.30;76.30
3548;DHT22;1788;49.400;11.092;2022-10-22T09:06:34;17.40;76.20
3548;DHT22;1788;49.400;11.092;2022-10-22T09:09:01;17.50;76.30
3548;DHT22;1788;49.400;11.092;2022-10-22T09:11:30;17.60;76.30
3548;DHT22;1788;49.400;11.092;2022-10-22T09:13:55;17.80;75.90
3548;DHT22;1788;49.400;11.092;2022-10-22T09:18:51;17.80;75.30
3548;DHT22;1788;49.400;11.092;2022-10-22T09:26:11;17.90;75.10
3548;DHT22;1788;49.400;11.092;2022-10-22T09:28:35;18.00;75.00
3548;DHT22;1788;49.400;11.092;2022-10-22T09:31:07;18.20;74.80
3548;DHT22;1788;49.400;11.092;2022-10-22T09:33:29;18.20;74.80
3548;DHT22;1788;49.400;11.092;2022-10-22T09:35:57;18.30;74.50
3548;DHT22;1788;49.400;11.092;2022-10-22T09:40:50;18.60;73.50
3548;DHT22;1788;49.400;11.092;2022-10-22T09:43:16;18.70;73.00
3548;DHT22;1788;49.400;11.092;2022-10-22T09:45:42;18.80;72.70
3548;DHT22;1788;49.400;11.092;2022-10-22T09:50:37;19.00;72.00
3548;DHT22;1788;49.400;11.092;2022-10-22T09:55:30;19.00;70.70
3548;DHT22;1788;49.400;11.092;2022-10-22T09:57:57;19.00;70.70
3548;DHT22;1788;49.400;11.092;2022-10-22T10:00:23;19.00;70.60
3548;DHT22;1788;49.400;11.092;2022-10-22T10:05:17;18.90;70.10
3548;DHT22;1788;49.400;11.092;2022-10-22T10:07:43;18.80;70.20
3548;DHT22;1788;49.400;11.092;2022-10-22T10:10:16;18.80;70.10
3548;DHT22;1788;49.400;11.092;2022-10-22T10:39:35;19.90;66.90
3548;DHT22;1788;49.400;11.092;2022-10-22T10:49:21;19.90;65.60
3548;DHT22;1788;49.400;11.092;2022-10-22T10:51:49;19.80;65.40
3548;DHT22;1788;49.400;11.092;2022-10-22T10:54:15;19.80;65.30
3548;DHT22;1788;49.400;11.092;2022-10-22T10:59:11;19.80;65.00
3548;DHT22;1788;49.400;11.092;2022-10-22T11:01:36;19.90;65.00
3548;DHT22;1788;49.400;11.092;2022-10-22T11:06:27;20.00;64.50
3548;DHT22;1788;49.400;11.092;2022-10-22T11:08:55;19.90;64.30
3548;DHT22;1788;49.400;11.092;2022-10-22T11:13:55;20.00;64.60
3548;DHT22;1788;49.400;11.092;2022-10-22T11:18:43;20.20;64.40
3548;DHT22;1788;49.400;11.092;2022-10-22T11:23:37;21.10;63.20
3548;DHT22;1788;49.400;11.092;2022-10-22T11:26:03;21.10;63.20
3548;DHT22;1788;49.400;11.092;2022-10-22T11:28:31;21.60;62.40
3548;DHT22;1788;49.400;11.092;2022-10-22T11:33:23;21.80;61.40
3548;DHT22;1788;49.400;11.092;2022-10-22T11:35:49;22.00;61.00
3548;DHT22;1788;49.400;11.092;2022-10-22T11:38:17;22.10;60.50
3548;DHT22;1788;49.400;11.092;2022-10-22T11:40:49;22.00;59.80
3548;DHT22;1788;49.400;11.092;2022-10-22T11:43:11;22.00;59.80
3548;DHT22;1788;49.400;11.092;2022-10-22T11:45:40;21.90;59.60
3548;DHT22;1788;49.400;11.092;2022-10-22T11:57:52;21.70;59.30
3548;DHT22;1788;49.400;11.092;2022-10-22T12:02:45;21.90;59.00
3548;DHT22;1788;49.400;11.092;2022-10-22T12:10:15;23.40;57.10
3548;DHT22;1788;49.400;11.092;2022-10-22T12:12:34;23.40;57.10
3548;DHT22;1788;49.400;11.092;2022-10-22T12:15:00;23.20;56.30
3548;DHT22;1788;49.400;11.092;2022-10-22T12:17:27;23.20;56.20
3548;DHT22;1788;49.400;11.092;2022-10-22T12:19:54;23.00;56.20
3548;DHT22;1788;49.400;11.092;2022-10-22T12:22:22;22.80;56.40
3548;DHT22;1788;49.400;11.092;2022-10-22T12:24:47;22.80;56.30
3548;DHT22;1788;49.400;11.092;2022-10-22T12:27:15;22.60;56.30
3548;DHT22;1788;49.400;11.092;2022-10-22T12:29:40;22.60;56.30
3548;DHT22;1788;49.400;11.092;2022-10-22T12:32:09;22.30;56.40
3548;DHT22;1788;49.400;11.092;2022-10-22T12:34:35;22.30;56.40
3548;DHT22;1788;49.400;11.092;2022-10-22T12:37:02;22.20;56.60
3548;DHT22;1788;49.400;11.092;2022-10-22T12:39:29;22.00;56.70
3548;DHT22;1788;49.400;11.092;2022-10-22T12:41:56;22.00;56.70
3548;DHT22;1788;49.400;11.092;2022-10-22T12:44:22;22.00;56.70
3548;DHT22;1788;49.400;11.092;2022-10-22T12:46:49;22.10;56.70
3548;DHT22;1788;49.400;11.092;2022-10-22T12:51:42;21.90;56.50
3548;DHT22;1788;49.400;11.092;2022-10-22T12:54:12;21.80;56.50
3548;DHT22;1788;49.400;11.092;2022-10-22T12:56:35;21.70;56.50
3548;DHT22;1788;49.400;11.092;2022-10-22T13:01:33;21.50;56.70
3548;DHT22;1788;49.400;11.092;2022-10-22T13:06:24;21.30;56.80
3548;DHT22;1788;49.400;11.092;2022-10-22T13:11:18;21.20;56.90
3548;DHT22;1788;49.400;11.092;2022-10-22T13:13:44;21.30;57.00
3548;DHT22;1788;49.400;11.092;2022-10-22T13:18:39;21.40;56.50
3548;DHT22;1788;49.400;11.092;2022-10-22T13:21:19;21.40;56.50
3548;DHT22;1788;49.400;11.092;2022-10-22T13:23:32;21.40;56.60
3548;DHT22;1788;49.400;11.092;2022-10-22T13:26:00;21.30;56.60
3548;DHT22;1788;49.400;11.092;2022-10-22T13:28:26;21.50;56.30
3548;DHT22;1788;49.400;11.092;2022-10-22T13:30:54;21.50;56.00
3548;DHT22;1788;49.400;11.092;2022-10-22T13:35:46;21.20;55.90
3548;DHT22;1788;49.400;11.092;2022-10-22T13:38:14;21.10;56.70
3548;DHT22;1788;49.400;11.092;2022-10-22T13:40:39;21.10;56.20
3548;DHT22;1788;49.400;11.092;2022-10-22T13:43:07;22.30;55.10
3548;DHT22;1788;49.400;11.092;2022-10-22T13:45:33;22.30;55.10
3548;DHT22;1788;49.400;11.092;2022-10-22T13:48:01;25.10;52.50
3548;DHT22;1788;49.400;11.092;2022-10-22T13:50:27;25.00;52.40
3548;DHT22;1788;49.400;11.092;2022-10-22T13:52:55;27.10;49.70
3548;DHT22;1788;49.400;11.092;2022-10-22T13:55:23;27.00;49.10
3548;DHT22;1788;49.400;11.092;2022-10-22T13:57:48;28.60;47.30
3548;DHT22;1788;49.400;11.092;2022-10-22T14:02:42;29.20;46.30
3548;DHT22;1788;49.400;11.092;2022-10-22T14:05:08;29.60;45.50
3548;DHT22;1788;49.400;11.092;2022-10-22T14:07:35;29.80;45.00
3548;DHT22;1788;49.400;11.092;2022-10-22T14:10:05;30.10;44.60
3548;DHT22;1788;49.400;11.092;2022-10-22T14:12:29;30.00;44.50
3548;DHT22;1788;49.400;11.092;2022-10-22T14:14:56;30.60;44.10
3548;DHT22;1788;49.400;11.092;2022-10-22T14:17:23;30.60;43.60
3548;DHT22;1788;49.400;11.092;2022-10-22T14:19:50;30.70;43.80
3548;DHT22;1788;49.400;11.092;2022-10-22T14:22:17;30.60;43.20
3548;DHT22;1788;49.400;11.092;2022-10-22T14:24:44;30.70;42.90
3548;DHT22;1788;49.400;11.092;2022-10-22T14:27:11;30.70;42.70
3548;DHT22;1788;49.400;11.092;2022-10-22T14:29:37;30.70;42.50
3548;DHT22;1788;49.400;11.092;2022-10-22T14:34:31;30.70;41.70
3548;DHT22;1788;49.400;11.092;2022-10-22T14:36:58;30.70;41.70
3548;DHT22;1788;49.400;11.092;2022-10-22T14:39:25;30.50;41.90
3548;DHT22;1788;49.400;11.092;2022-10-22T14:41:52;30.50;41.50
3548;DHT22;1788;49.400;11.092;2022-10-22T14:44:19;30.50;41.60
3548;DHT22;1788;49.400;11.092;2022-10-22T14:46:45;30.40;41.80
3548;DHT22;1788;49.400;11.092;2022-10-22T14:49:12;29.90;41.80
3548;DHT22;1788;49.400;11.092;2022-10-22T14:51:39;29.40;42.10
3548;DHT22;1788;49.400;11.092;2022-10-22T14:54:05;29.00;42.50
3548;DHT22;1788;49.400;11.092;2022-10-22T14:56:32;28.40;42.90
3548;DHT22;1788;49.400;11.092;2022-10-22T14:58:58;27.70;43.50
3548;DHT22;1788;49.400;11.092;2022-10-22T15:01:25;27.10;44.30
3548;DHT22;1788;49.400;11.092;2022-10-22T15:03:52;26.10;45.50
3548;DHT22;1788;49.400;11.092;2022-10-22T15:06:19;26.00;45.40
3548;DHT22;1788;49.400;11.092;2022-10-22T15:08:46;25.40;46.10
3548;DHT22;1788;49.400;11.092;2022-10-22T15:11:13;25.40;46.10
3548;DHT22;1788;49.400;11.092;2022-10-22T15:13:40;25.20;46.30
3548;DHT22;1788;49.400;11.092;2022-10-22T15:16:07;24.90;46.40
3548;DHT22;1788;49.400;11.092;2022-10-22T15:18:33;24.60;46.70
3548;DHT22;1788;49.400;11.092;2022-10-22T15:21:01;23.90;47.50
3548;DHT22;1788;49.400;11.092;2022-10-22T15:23:27;23.80;47.40
3548;DHT22;1788;49.400;11.092;2022-10-22T15:25:54;23.50;47.90
3548;DHT22;1788;49.400;11.092;2022-10-22T15:28:20;23.30;48.40
3548;DHT22;1788;49.400;11.092;2022-10-22T15:33:13;22.70;48.90
3548;DHT22;1788;49.400;11.092;2022-10-22T15:35:40;22.50;49.30
3548;DHT22;1788;49.400;11.092;2022-10-22T15:38:06;22.30;49.60
3548;DHT22;1788;49.400;11.092;2022-10-22T15:40:33;22.10;50.00
3548;DHT22;1788;49.400;11.092;2022-10-22T15:43:00;22.00;50.30
3548;DHT22;1788;49.400;11.092;2022-10-22T15:45:26;21.80;50.40
3548;DHT22;1788;49.400;11.092;2022-10-22T15:47:53;21.70;50.70
3548;DHT22;1788;49.400;11.092;2022-10-22T15:50:20;21.60;50.90
3548;DHT22;1788;49.400;11.092;2022-10-22T15:52:47;21.30;51.20
3548;DHT22;1788;49.400;11.092;2022-10-22T15:55:14;21.30;51.20
3548;DHT22;1788;49.400;11.092;2022-10-22T15:57:40;21.20;51.50
3548;DHT22;1788;49.400;11.092;2022-10-22T16:00:07;21.00;51.60
3548;DHT22;1788;49.400;11.092;2022-10-22T16:02:33;20.90;51.90
3548;DHT22;1788;49.400;11.092;2022-10-22T16:05:00;20.80;52.20
3548;DHT22;1788;49.400;11.092;2022-10-22T16:07:27;20.70;52.60
3548;DHT22;1788;49.400;11.092;2022-10-22T16:09:54;20.60;52.90
3548;DHT22;1788;49.400;11.092;2022-10-22T16:12:20;20.50;53.30
3548;DHT22;1788;49.400;11.092;2022-10-22T16:14:48;20.40;53.60
3548;DHT22;1788;49.400;11.092;2022-10-22T16:17:14;20.20;53.90
3548;DHT22;1788;49.400;11.092;2022-10-22T16:19:40;20.10;54.20
3548;DHT22;1788;49.400;11.092;2022-10-22T16:22:07;20.00;55.00
3548;DHT22;1788;49.400;11.092;2022-10-22T16:24:33;19.90;54.80
3548;DHT22;1788;49.400;11.092;2022-10-22T16:27:01;19.70;55.40
3548;DHT22;1788;49.400;11.092;2022-10-22T16:29:27;19.70;55.40
3548;DHT22;1788;49.400;11.092;2022-10-22T16:31:54;19.60;55.70
3548;DHT22;1788;49.400;11.092;2022-10-22T16:34:21;19.50;56.00
3548;DHT22;1788;49.400;11.092;2022-10-22T16:36:47;19.40;56.20
3548;DHT22;1788;49.400;11.092;2022-10-22T16:39:15;19.20;56.70
3548;DHT22;1788;49.400;11.092;2022-10-22T16:41:44;19.20;56.70
3548;DHT22;1788;49.400;11.092;2022-10-22T16:44:10;19.20;57.00
3548;DHT22;1788;49.400;11.092;2022-10-22T16:46:37;19.10;57.30
3548;DHT22;1788;49.400;11.092;2022-10-22T16:49:05;18.90;57.70
3548;DHT22;1788;49.400;11.092;2022-10-22T16:51:31;18.90;57.70
3548;DHT22;1788;49.400;11.092;2022-10-22T16:53:57;18.80;57.80
3548;DHT22;1788;49.400;11.092;2022-10-22T16:56:24;18.80;58.00
3548;DHT22;1788;49.400;11.092;2022-10-22T16:58:51;18.70;58.10
3548;DHT22;1788;49.400;11.092;2022-10-22T17:01:19;18.60;58.10
3548;DHT22;1788;49.400;11.092;2022-10-22T17:03:45;18.60;58.30
3548;DHT22;1788;49.400;11.092;2022-10-22T17:06:13;18.40;58.20
3548;DHT22;1788;49.400;11.092;2022-10-22T17:08:40;18.40;58.60
3548;DHT22;1788;49.400;11.092;2022-10-22T17:13:33;18.30;58.90
3548;DHT22;1788;49.400;11.092;2022-10-22T17:16:02;18.20;59.00
3548;DHT22;1788;49.400;11.092;2022-10-22T17:18:27;18.20;59.20
3548;DHT22;1788;49.400;11.092;2022-10-22T17:20:54;18.10;59.30
3548;DHT22;1788;49.400;11.092;2022-10-22T17:23:21;18.10;59.40
3548;DHT22;1788;49.400;11.092;2022-10-22T17:25:48;18.00;59.50
3548;DHT22;1788;49.400;11.092;2022-10-22T17:28:15;18.00;59.60
3548;DHT22;1788;49.400;11.092;2022-10-22T17:30:42;17.80;59.90
3548;DHT22;1788;49.400;11.092;2022-10-22T17:33:09;17.80;59.80
3548;DHT22;1788;49.400;11.092;2022-10-22T17:35:38;17.70;60.80
3548;DHT22;1788;49.400;11.092;2022-10-22T17:38:03;17.70;60.00
3548;DHT22;1788;49.400;11.092;2022-10-22T17:40:29;17.70;60.20
3548;DHT22;1788;49.400;11.092;2022-10-22T17:42:56;17.60;60.40
3548;DHT22;1788;49.400;11.092;2022-10-22T17:45:23;17.60;60.60
3548;DHT22;1788;49.400;11.092;2022-10-22T17:47:50;17.50;60.90
3548;DHT22;1788;49.400;11.092;2022-10-22T17:50:17;17.40;60.80
3548;DHT22;1788;49.400;11.092;2022-10-22T17:52:43;17.40;60.90
3548;DHT22;1788;49.400;11.092;2022-10-22T17:57:37;17.30;61.10
3548;DHT22;1788;49.400;11.092;2022-10-22T18:00:04;17.20;61.10
3548;DHT22;1788;49.400;11.092;2022-10-22T18:02:30;17.20;61.20
3548;DHT22;1788;49.400;11.092;2022-10-22T18:04:58;17.00;61.20
3548;DHT22;1788;49.400;11.092;2022-10-22T18:07:24;17.00;61.20
3548;DHT22;1788;49.400;11.092;2022-10-22T18:09:52;16.90;62.20
3548;DHT22;1788;49.400;11.092;2022-10-22T18:12:18;16.90;61.30
3548;DHT22;1788;49.400;11.092;2022-10-22T18:14:45;16.90;61.40
3548;DHT22;1788;49.400;11.092;2022-10-22T18:17:11;16.80;61.40
3548;DHT22;1788;49.400;11.092;2022-10-22T18:19:38;16.70;61.40
3548;DHT22;1788;49.400;11.092;2022-10-22T18:22:05;16.70;61.60